sensor_id;sensor_type;location;lat;lon;timestamp;P1;durP1;ratioP1;P2;durP2;ratioP2
73672;SDS011;61972;19.480;-99.240;2023-11-21T00:01:19;16.70;;;10.45;;
73672;SDS011;61972;19.480;-99.240;2023-11-21T00:03:45;14.83;;;9.33;;
73672;SDS011;61972;19.480;-99.240;2023-11-21T00:06:11;20.15;;;10.32;;
73672;SDS011;61972;19.480;-99.240;2023-11-21T00:08:40;16.80;;;9.05;;
73672;SDS011;61972;19.480;-99.240;2023-11-21T00:11:09;17.17;;;9.52;;
73672;SDS011;61972;19.480;-99.240;2023-11-21T00:13:35;15.52;;;9.85;;
73672;SDS011;61972;19.480;-99.240;2023-11-21T00:16:01;17.33;;;9.60;;
73672;SDS011;61972;19.480;-99.240;2023-11-21T00:18:29;20.40;;;9.40;;
73672;SDS011;61972;19.480;-99.240;2023-11-21T00:20:56;16.50;;;9.52;;
73672;SDS011;61972;19.480;-99.240;2023-11-21T00:23:24;13.45;;;8.95;;
73672;SDS011;61972;19.480;-99.240;2023-11-21T00:25:50;16.48;;;9.18;;
73672;SDS011;61972;19.480;-99.240;2023-11-21T00:28:16;13.43;;;8.90;;
73672;SDS011;61972;19.480;-99.240;2023-11-21T00:30:42;11.70;;;8.25;;
73672;SDS011;61972;19.480;-99.240;2023-11-21T00:33:08;17.23;;;9.27;;
73672;SDS011;61972;19.480;-99.240;2023-11-21T00:35:35;14.93;;;8.43;;
73672;SDS011;61972;19.480;-99.240;2023-11-21T00:38:01;14.60;;;8.55;;
73672;SDS011;61972;19.480;-99.240;2023-11-21T00:40:28;15.00;;;8.50;;
73672;SDS011;61972;19.480;-99.240;2023-11-21T00:42:54;14.65;;;8.77;;
73672;SDS011;61972;19.480;-99.240;2023-11-21T00:45:21;12.45;;;7.75;;
73672;SDS011;61972;19.480;-99.240;2023-11-21T00:47:47;15.68;;;7.93;;
73672;SDS011;61972;19.480;-99.240;2023-11-21T00:50:13;12.65;;;8.23;;
73672;SDS011;61972;19.480;-99.240;2023-11-21T00:52:40;12.10;;;7.67;;
73672;SDS011;61972;19.480;-99.240;2023-11-21T00:55:09;12.85;;;8.35;;
73672;SDS011;61972;19.480;-99.240;2023-11-21T00:57:38;10.95;;;7.57;;
73672;SDS011;61972;19.480;-99.240;2023-11-21T01:00:05;11.15;;;7.45;;
73672;SDS011;61972;19.480;-99.240;2023-11-21T01:02:33;13.93;;;7.88;;
73672;SDS011;61972;19.480;-99.240;2023-11-21T01:05:00;12.07;;;7.30;;
73672;SDS011;61972;19.480;-99.240;2023-11-21T01:07:27;13.27;;;7.60;;
73672;SDS011;61972;19.480;-99.240;2023-11-21T01:09:53;13.27;;;7.70;;
73672;SDS011;61972;19.480;-99.240;2023-11-21T01:12:24;9.95;;;7.03;;
73672;SDS011;61972;19.480;-99.240;2023-11-21T01:14:51;10.43;;;7.30;;
73672;SDS011;61972;19.480;-99.240;2023-11-21T01:17:23;10.50;;;7.03;;
73672;SDS011;61972;19.480;-99.240;2023-11-21T01:20:03;10.65;;;6.90;;
73672;SDS011;61972;19.480;-99.240;2023-11-21T01:22:38;10.68;;;6.90;;
73672;SDS011;61972;19.480;-99.240;2023-11-21T01:25:04;9.63;;;6.70;;
73672;SDS011;61972;19.480;-99.240;2023-11-21T01:27:35;10.32;;;7.20;;
73672;SDS011;61972;19.480;-99.240;2023-11-21T01:30:05;10.07;;;6.90;;
73672;SDS011;61972;19.480;-99.240;2023-11-21T01:32:33;8.93;;;6.70;;
73672;SDS011;61972;19.480;-99.240;2023-11-21T01:34:59;8.95;;;6.20;;
73672;SDS011;61972;19.480;-99.240;2023-11-21T01:37:25;10.80;;;6.70;;
73672;SDS011;61972;19.480;-99.240;2023-11-21T01:39:56;9.00;;;6.78;;
73672;SDS011;61972;19.480;-99.240;2023-11-21T01:42:22;9.77;;;6.93;;
73672;SDS011;61972;19.480;-99.240;2023-11-21T01:44:49;11.05;;;6.75;;
73672;SDS011;61972;19.480;-99.240;2023-11-21T01:47:15;10.05;;;6.85;;
73672;SDS011;61972;19.480;-99.240;2023-11-21T01:49:43;9.25;;;6.80;;
73672;SDS011;61972;19.480;-99.240;2023-11-21T01:52:10;9.95;;;6.68;;
73672;SDS011;61972;19.480;-99.240;2023-11-21T01:54:37;8.43;;;6.57;;
73672;SDS011;61972;19.480;-99.240;2023-11-21T01:57:06;9.88;;;6.28;;
73672;SDS011;61972;19.480;-99.240;2023-11-21T01:59:34;9.90;;;6.40;;
73672;SDS011;61972;19.480;-99.240;2023-11-21T02:02:10;9.55;;;6.65;;
73672;SDS011;61972;19.480;-99.240;2023-11-21T02:04:36;9.20;;;6.50;;
73672;SDS011;61972;19.480;-99.240;2023-11-21T02:07:03;8.43;;;6.27;;
73672;SDS011;61972;19.480;-99.240;2023-11-21T02:09:32;9.65;;;6.38;;
73672;SDS011;61972;19.480;-99.240;2023-11-21T02:14:51;8.27;;;5.90;;
73672;SDS011;61972;19.480;-99.240;2023-11-21T02:17:18;9.38;;;5.90;;
73672;SDS011;61972;19.480;-99.240;2023-11-21T02:19:44;8.57;;;5.80;;
73672;SDS011;61972;19.480;-99.240;2023-11-21T02:22:12;9.48;;;6.50;;
73672;SDS011;61972;19.480;-99.240;2023-11-21T02:24:40;8.65;;;6.50;;
73672;SDS011;61972;19.480;-99.240;2023-11-21T02:27:07;8.40;;;5.68;;
73672;SDS011;61972;19.480;-99.240;2023-11-21T02:29:33;8.68;;;5.75;;
73672;SDS011;61972;19.480;-99.240;2023-11-21T02:32:02;7.67;;;5.83;;
73672;SDS011;61972;19.480;-99.240;2023-11-21T02:34:29;7.25;;;5.55;;
73672;SDS011;61972;19.480;-99.240;2023-11-21T02:36:55;9.95;;;6.35;;
73672;SDS011;61972;19.480;-99.240;2023-11-21T02:39:22;9.52;;;6.05;;
73672;SDS011;61972;19.480;-99.240;2023-11-21T02:41:49;10.32;;;6.10;;
73672;SDS011;61972;19.480;-99.240;2023-11-21T02:44:16;7.90;;;5.60;;
73672;SDS011;61972;19.480;-99.240;2023-11-21T02:46:42;8.45;;;5.93;;
73672;SDS011;61972;19.480;-99.240;2023-11-21T02:49:08;8.23;;;5.82;;
73672;SDS011;61972;19.480;-99.240;2023-11-21T02:51:37;8.27;;;5.47;;
73672;SDS011;61972;19.480;-99.240;2023-11-21T02:54:05;8.80;;;5.43;;
73672;SDS011;61972;19.480;-99.240;2023-11-21T02:56:33;7.00;;;5.40;;
73672;SDS011;61972;19.480;-99.240;2023-11-21T02:58:59;6.93;;;5.50;;
73672;SDS011;61972;19.480;-99.240;2023-11-21T03:01:26;8.05;;;5.80;;
73672;SDS011;61972;19.480;-99.240;2023-11-21T03:03:53;8.15;;;5.50;;
73672;SDS011;61972;19.480;-99.240;2023-11-21T03:06:21;8.15;;;5.35;;
73672;SDS011;61972;19.480;-99.240;2023-11-21T03:09:05;7.20;;;5.20;;
73672;SDS011;61972;19.480;-99.240;2023-11-21T03:11:31;9.15;;;5.40;;
73672;SDS011;61972;19.480;-99.240;2023-11-21T03:13:57;7.93;;;5.60;;
73672;SDS011;61972;19.480;-99.240;2023-11-21T03:16:24;8.35;;;5.97;;
73672;SDS011;61972;19.480;-99.240;2023-11-21T03:18:51;8.70;;;5.72;;
73672;SDS011;61972;19.480;-99.240;2023-11-21T03:21:17;7.23;;;5.33;;
73672;SDS011;61972;19.480;-99.240;2023-11-21T03:23:44;7.65;;;5.85;;
73672;SDS011;61972;19.480;-99.240;2023-11-21T03:28:52;6.30;;;5.00;;
73672;SDS011;61972;19.480;-99.240;2023-11-21T03:31:18;6.43;;;4.78;;
73672;SDS011;61972;19.480;-99.240;2023-11-21T03:33:48;7.30;;;5.00;;
73672;SDS011;61972;19.480;-99.240;2023-11-21T03:36:14;11.10;;;5.38;;
73672;SDS011;61972;19.480;-99.240;2023-11-21T03:38:43;7.65;;;4.88;;
73672;SDS011;61972;19.480;-99.240;2023-11-21T03:41:09;6.38;;;4.80;;
73672;SDS011;61972;19.480;-99.240;2023-11-21T03:43:36;7.00;;;5.30;;
73672;SDS011;61972;19.480;-99.240;2023-11-21T03:46:02;8.37;;;4.70;;
73672;SDS011;61972;19.480;-99.240;2023-11-21T03:48:29;7.15;;;5.20;;
73672;SDS011;61972;19.480;-99.240;2023-11-21T03:50:55;7.43;;;5.03;;
73672;SDS011;61972;19.480;-99.240;2023-11-21T03:53:22;7.57;;;5.00;;
73672;SDS011;61972;19.480;-99.240;2023-11-21T03:55:48;7.53;;;5.72;;
73672;SDS011;61972;19.480;-99.240;2023-11-21T03:58:15;7.20;;;5.30;;
73672;SDS011;61972;19.480;-99.240;2023-11-21T04:00:41;7.93;;;5.40;;
73672;SDS011;61972;19.480;-99.240;2023-11-21T04:03:07;7.72;;;5.57;;
73672;SDS011;61972;19.480;-99.240;2023-11-21T04:05:33;9.43;;;5.53;;
73672;SDS011;61972;19.480;-99.240;2023-11-21T04:08:00;7.53;;;5.30;;
73672;SDS011;61972;19.480;-99.240;2023-11-21T04:10:26;8.87;;;5.80;;
73672;SDS011;61972;19.480;-99.240;2023-11-21T04:12:52;9.32;;;5.55;;
73672;SDS011;61972;19.480;-99.240;2023-11-21T04:15:18;8.88;;;5.60;;
73672;SDS011;61972;19.480;-99.240;2023-11-21T04:17:44;8.38;;;5.97;;
73672;SDS011;61972;19.480;-99.240;2023-11-21T04:20:10;8.43;;;5.80;;
73672;SDS011;61972;19.480;-99.240;2023-11-21T04:22:40;7.93;;;5.97;;
73672;SDS011;61972;19.480;-99.240;2023-11-21T04:25:12;9.57;;;5.88;;
73672;SDS011;61972;19.480;-99.240;2023-11-21T04:27:40;9.05;;;5.72;;
73672;SDS011;61972;19.480;-99.240;2023-11-21T04:30:09;8.02;;;5.80;;
73672;SDS011;61972;19.480;-99.240;2023-11-21T04:32:38;8.32;;;5.47;;
73672;SDS011;61972;19.480;-99.240;2023-11-21T04:35:05;10.90;;;5.97;;
73672;SDS011;61972;19.480;-99.240;2023-11-21T04:37:31;7.90;;;5.57;;
73672;SDS011;61972;19.480;-99.240;2023-11-21T04:39:58;8.75;;;5.90;;
73672;SDS011;61972;19.480;-99.240;2023-11-21T04:42:33;9.07;;;5.80;;
73672;SDS011;61972;19.480;-99.240;2023-11-21T04:45:01;8.38;;;5.80;;
73672;SDS011;61972;19.480;-99.240;2023-11-21T04:47:30;9.63;;;6.20;;
73672;SDS011;61972;19.480;-99.240;2023-11-21T04:49:56;8.85;;;5.97;;
73672;SDS011;61972;19.480;-99.240;2023-11-21T04:52:22;9.10;;;5.93;;
73672;SDS011;61972;19.480;-99.240;2023-11-21T04:54:49;9.05;;;6.13;;
73672;SDS011;61972;19.480;-99.240;2023-11-21T04:57:15;9.07;;;6.15;;
73672;SDS011;61972;19.480;-99.240;2023-11-21T04:59:43;10.33;;;6.07;;
73672;SDS011;61972;19.480;-99.240;2023-11-21T05:02:09;10.40;;;6.35;;
73672;SDS011;61972;19.480;-99.240;2023-11-21T05:04:38;10.02;;;6.18;;
73672;SDS011;61972;19.480;-99.240;2023-11-21T05:07:04;8.07;;;5.65;;
73672;SDS011;61972;19.480;-99.240;2023-11-21T05:09:30;9.25;;;6.28;;
73672;SDS011;61972;19.480;-99.240;2023-11-21T05:11:57;8.83;;;6.03;;
73672;SDS011;61972;19.480;-99.240;2023-11-21T05:14:23;9.65;;;6.32;;
73672;SDS011;61972;19.480;-99.240;2023-11-21T05:16:50;9.70;;;6.07;;
73672;SDS011;61972;19.480;-99.240;2023-11-21T05:19:17;42.72;;;25.27;;
73672;SDS011;61972;19.480;-99.240;2023-11-21T05:21:43;56.75;;;36.40;;
73672;SDS011;61972;19.480;-99.240;2023-11-21T05:24:09;71.07;;;43.13;;
73672;SDS011;61972;19.480;-99.240;2023-11-21T05:26:38;72.53;;;42.83;;
73672;SDS011;61972;19.480;-99.240;2023-11-21T05:29:04;68.45;;;42.83;;
73672;SDS011;61972;19.480;-99.240;2023-11-21T05:31:31;72.25;;;43.92;;
73672;SDS011;61972;19.480;-99.240;2023-11-21T05:33:57;72.05;;;44.75;;
73672;SDS011;61972;19.480;-99.240;2023-11-21T05:36:23;76.10;;;45.20;;
73672;SDS011;61972;19.480;-99.240;2023-11-21T05:38:49;73.10;;;43.78;;
73672;SDS011;61972;19.480;-99.240;2023-11-21T05:41:15;69.65;;;44.38;;
73672;SDS011;61972;19.480;-99.240;2023-11-21T05:43:42;77.50;;;45.95;;
73672;SDS011;61972;19.480;-99.240;2023-11-21T05:46:09;72.40;;;45.67;;
73672;SDS011;61972;19.480;-99.240;2023-11-21T05:48:35;69.80;;;44.00;;
73672;SDS011;61972;19.480;-99.240;2023-11-21T05:51:05;70.30;;;41.97;;
73672;SDS011;61972;19.480;-99.240;2023-11-21T05:53:32;73.45;;;44.53;;
73672;SDS011;61972;19.480;-99.240;2023-11-21T05:55:58;70.68;;;42.67;;
73672;SDS011;61972;19.480;-99.240;2023-11-21T05:58:24;72.75;;;43.13;;
73672;SDS011;61972;19.480;-99.240;2023-11-21T06:00:50;69.27;;;42.27;;
73672;SDS011;61972;19.480;-99.240;2023-11-21T06:03:16;70.00;;;42.13;;
73672;SDS011;61972;19.480;-99.240;2023-11-21T06:05:42;66.57;;;40.83;;
73672;SDS011;61972;19.480;-99.240;2023-11-21T06:08:09;67.15;;;40.92;;
73672;SDS011;61972;19.480;-99.240;2023-11-21T06:10:35;67.25;;;40.65;;
73672;SDS011;61972;19.480;-99.240;2023-11-21T06:13:02;65.60;;;39.73;;
73672;SDS011;61972;19.480;-99.240;2023-11-21T06:15:29;63.33;;;38.25;;
73672;SDS011;61972;19.480;-99.240;2023-11-21T06:17:55;60.50;;;37.08;;
73672;SDS011;61972;19.480;-99.240;2023-11-21T06:20:22;60.35;;;38.63;;
73672;SDS011;61972;19.480;-99.240;2023-11-21T06:22:48;63.70;;;37.63;;
73672;SDS011;61972;19.480;-99.240;2023-11-21T06:25:15;58.63;;;36.40;;
73672;SDS011;61972;19.480;-99.240;2023-11-21T06:27:46;57.28;;;34.47;;
73672;SDS011;61972;19.480;-99.240;2023-11-21T06:30:13;57.65;;;34.83;;
73672;SDS011;61972;19.480;-99.240;2023-11-21T06:32:41;56.25;;;34.35;;
73672;SDS011;61972;19.480;-99.240;2023-11-21T06:35:11;55.97;;;34.10;;
73672;SDS011;61972;19.480;-99.240;2023-11-21T06:37:38;52.63;;;32.83;;
73672;SDS011;61972;19.480;-99.240;2023-11-21T06:40:05;50.85;;;33.03;;
73672;SDS011;61972;19.480;-99.240;2023-11-21T06:42:31;52.53;;;32.78;;
73672;SDS011;61972;19.480;-99.240;2023-11-21T06:44:58;49.15;;;31.77;;
73672;SDS011;61972;19.480;-99.240;2023-11-21T06:47:27;54.10;;;32.17;;
73672;SDS011;61972;19.480;-99.240;2023-11-21T06:49:54;51.60;;;31.17;;
73672;SDS011;61972;19.480;-99.240;2023-11-21T06:52:21;46.03;;;30.75;;
73672;SDS011;61972;19.480;-99.240;2023-11-21T06:54:47;48.25;;;30.50;;
73672;SDS011;61972;19.480;-99.240;2023-11-21T06:57:17;46.88;;;29.48;;
73672;SDS011;61972;19.480;-99.240;2023-11-21T06:59:43;44.05;;;28.90;;
73672;SDS011;61972;19.480;-99.240;2023-11-21T07:02:09;48.13;;;29.40;;
73672;SDS011;61972;19.480;-99.240;2023-11-21T07:04:36;48.22;;;29.02;;
73672;SDS011;61972;19.480;-99.240;2023-11-21T07:07:02;44.28;;;28.13;;
73672;SDS011;61972;19.480;-99.240;2023-11-21T07:09:29;43.20;;;28.00;;
73672;SDS011;61972;19.480;-99.240;2023-11-21T07:11:56;45.60;;;28.58;;
73672;SDS011;61972;19.480;-99.240;2023-11-21T07:14:22;47.93;;;28.60;;
73672;SDS011;61972;19.480;-99.240;2023-11-21T07:16:49;42.50;;;27.70;;
73672;SDS011;61972;19.480;-99.240;2023-11-21T07:19:18;44.60;;;26.77;;
73672;SDS011;61972;19.480;-99.240;2023-11-21T07:21:45;42.17;;;26.88;;
73672;SDS011;61972;19.480;-99.240;2023-11-21T07:24:11;40.88;;;26.40;;
73672;SDS011;61972;19.480;-99.240;2023-11-21T07:26:37;42.67;;;25.63;;
73672;SDS011;61972;19.480;-99.240;2023-11-21T07:29:04;39.15;;;25.90;;
73672;SDS011;61972;19.480;-99.240;2023-11-21T07:31:31;38.95;;;25.75;;
73672;SDS011;61972;19.480;-99.240;2023-11-21T07:33:59;38.33;;;24.85;;
73672;SDS011;61972;19.480;-99.240;2023-11-21T07:36:26;39.97;;;25.30;;
73672;SDS011;61972;19.480;-99.240;2023-11-21T07:38:52;37.70;;;24.77;;
73672;SDS011;61972;19.480;-99.240;2023-11-21T07:41:19;36.35;;;23.60;;
73672;SDS011;61972;19.480;-99.240;2023-11-21T07:43:46;35.97;;;23.85;;
73672;SDS011;61972;19.480;-99.240;2023-11-21T07:46:12;40.63;;;24.75;;
73672;SDS011;61972;19.480;-99.240;2023-11-21T07:48:39;36.28;;;23.88;;
73672;SDS011;61972;19.480;-99.240;2023-11-21T07:51:07;35.33;;;23.67;;
73672;SDS011;61972;19.480;-99.240;2023-11-21T07:53:34;33.65;;;22.45;;
73672;SDS011;61972;19.480;-99.240;2023-11-21T07:56:04;34.75;;;22.23;;
73672;SDS011;61972;19.480;-99.240;2023-11-21T07:58:34;33.42;;;22.58;;
73672;SDS011;61972;19.480;-99.240;2023-11-21T08:01:01;34.78;;;21.55;;
73672;SDS011;61972;19.480;-99.240;2023-11-21T08:03:27;38.70;;;21.53;;
73672;SDS011;61972;19.480;-99.240;2023-11-21T08:05:55;33.08;;;21.45;;
73672;SDS011;61972;19.480;-99.240;2023-11-21T08:08:25;32.63;;;21.85;;
73672;SDS011;61972;19.480;-99.240;2023-11-21T08:10:52;35.05;;;21.35;;
73672;SDS011;61972;19.480;-99.240;2023-11-21T08:13:26;34.42;;;20.77;;
73672;SDS011;61972;19.480;-99.240;2023-11-21T08:15:54;32.10;;;20.90;;
73672;SDS011;61972;19.480;-99.240;2023-11-21T08:18:28;30.50;;;20.38;;
73672;SDS011;61972;19.480;-99.240;2023-11-21T08:20:57;30.50;;;20.38;;
73672;SDS011;61972;19.480;-99.240;2023-11-21T08:23:23;28.58;;;19.40;;
73672;SDS011;61972;19.480;-99.240;2023-11-21T08:25:53;29.05;;;19.63;;
73672;SDS011;61972;19.480;-99.240;2023-11-21T08:28:25;28.23;;;19.23;;
73672;SDS011;61972;19.480;-99.240;2023-11-21T08:30:52;30.58;;;18.92;;
73672;SDS011;61972;19.480;-99.240;2023-11-21T08:33:19;28.77;;;19.60;;
73672;SDS011;61972;19.480;-99.240;2023-11-21T08:35:45;28.02;;;19.48;;
73672;SDS011;61972;19.480;-99.240;2023-11-21T08:38:12;27.25;;;18.73;;
73672;SDS011;61972;19.480;-99.240;2023-11-21T08:40:41;28.03;;;19.27;;
73672;SDS011;61972;19.480;-99.240;2023-11-21T08:43:07;26.75;;;17.58;;
73672;SDS011;61972;19.480;-99.240;2023-11-21T08:45:37;25.73;;;17.65;;
73672;SDS011;61972;19.480;-99.240;2023-11-21T08:48:03;26.10;;;18.48;;
73672;SDS011;61972;19.480;-99.240;2023-11-21T08:50:30;29.05;;;18.27;;
73672;SDS011;61972;19.480;-99.240;2023-11-21T08:52:56;26.73;;;18.27;;
73672;SDS011;61972;19.480;-99.240;2023-11-21T08:55:23;26.20;;;17.90;;
73672;SDS011;61972;19.480;-99.240;2023-11-21T08:57:49;24.65;;;16.80;;
73672;SDS011;61972;19.480;-99.240;2023-11-21T09:00:18;25.17;;;17.25;;
73672;SDS011;61972;19.480;-99.240;2023-11-21T09:02:44;25.10;;;17.33;;
73672;SDS011;61972;19.480;-99.240;2023-11-21T09:05:11;26.83;;;17.17;;
73672;SDS011;61972;19.480;-99.240;2023-11-21T09:07:40;24.92;;;16.67;;
73672;SDS011;61972;19.480;-99.240;2023-11-21T09:10:07;25.38;;;16.83;;
73672;SDS011;61972;19.480;-99.240;2023-11-21T09:12:35;24.33;;;17.08;;
73672;SDS011;61972;19.480;-99.240;2023-11-21T09:15:03;26.13;;;16.85;;
73672;SDS011;61972;19.480;-99.240;2023-11-21T09:17:40;23.17;;;16.13;;
73672;SDS011;61972;19.480;-99.240;2023-11-21T09:20:06;22.88;;;15.88;;
73672;SDS011;61972;19.480;-99.240;2023-11-21T09:22:35;24.42;;;16.65;;
73672;SDS011;61972;19.480;-99.240;2023-11-21T09:25:01;21.50;;;15.65;;
73672;SDS011;61972;19.480;-99.240;2023-11-21T09:27:31;21.95;;;15.00;;
73672;SDS011;61972;19.480;-99.240;2023-11-21T09:29:57;21.27;;;15.40;;
73672;SDS011;61972;19.480;-99.240;2023-11-21T09:32:23;21.05;;;14.65;;
73672;SDS011;61972;19.480;-99.240;2023-11-21T09:34:49;22.85;;;15.05;;
73672;SDS011;61972;19.480;-99.240;2023-11-21T09:37:16;22.88;;;14.90;;
73672;SDS011;61972;19.480;-99.240;2023-11-21T09:39:42;22.33;;;15.23;;
73672;SDS011;61972;19.480;-99.240;2023-11-21T09:42:29;20.93;;;14.47;;
73672;SDS011;61972;19.480;-99.240;2023-11-21T09:47:29;20.10;;;14.05;;
73672;SDS011;61972;19.480;-99.240;2023-11-21T09:49:56;20.73;;;14.68;;
73672;SDS011;61972;19.480;-99.240;2023-11-21T09:52:26;18.55;;;13.68;;
73672;SDS011;61972;19.480;-99.240;2023-11-21T09:54:54;19.77;;;13.50;;
73672;SDS011;61972;19.480;-99.240;2023-11-21T09:57:24;20.05;;;13.38;;
73672;SDS011;61972;19.480;-99.240;2023-11-21T09:59:51;20.33;;;14.07;;
73672;SDS011;61972;19.480;-99.240;2023-11-21T10:02:25;20.75;;;14.57;;
73672;SDS011;61972;19.480;-99.240;2023-11-21T10:04:54;20.83;;;13.88;;
73672;SDS011;61972;19.480;-99.240;2023-11-21T10:07:21;19.03;;;12.97;;
73672;SDS011;61972;19.480;-99.240;2023-11-21T10:09:48;19.27;;;13.15;;
73672;SDS011;61972;19.480;-99.240;2023-11-21T10:12:16;20.85;;;13.68;;
73672;SDS011;61972;19.480;-99.240;2023-11-21T10:14:46;18.80;;;12.90;;
73672;SDS011;61972;19.480;-99.240;2023-11-21T10:17:15;18.90;;;12.85;;
73672;SDS011;61972;19.480;-99.240;2023-11-21T10:19:45;18.90;;;13.03;;
73672;SDS011;61972;19.480;-99.240;2023-11-21T10:22:14;18.00;;;12.80;;
73672;SDS011;61972;19.480;-99.240;2023-11-21T10:24:41;18.15;;;12.55;;
73672;SDS011;61972;19.480;-99.240;2023-11-21T10:27:08;18.65;;;12.10;;
73672;SDS011;61972;19.480;-99.240;2023-11-21T10:29:35;17.10;;;12.30;;
73672;SDS011;61972;19.480;-99.240;2023-11-21T10:32:04;20.43;;;12.57;;
73672;SDS011;61972;19.480;-99.240;2023-11-21T10:34:31;16.92;;;12.15;;
73672;SDS011;61972;19.480;-99.240;2023-11-21T10:36:57;18.85;;;12.82;;
73672;SDS011;61972;19.480;-99.240;2023-11-21T10:39:24;17.27;;;12.10;;
73672;SDS011;61972;19.480;-99.240;2023-11-21T10:41:56;17.63;;;12.10;;
73672;SDS011;61972;19.480;-99.240;2023-11-21T10:44:22;15.37;;;11.40;;
73672;SDS011;61972;19.480;-99.240;2023-11-21T10:46:52;17.83;;;12.02;;
73672;SDS011;61972;19.480;-99.240;2023-11-21T10:49:22;16.75;;;11.65;;
73672;SDS011;61972;19.480;-99.240;2023-11-21T10:51:50;16.85;;;11.48;;
73672;SDS011;61972;19.480;-99.240;2023-11-21T10:54:22;17.75;;;11.85;;
73672;SDS011;61972;19.480;-99.240;2023-11-21T10:56:56;16.37;;;11.43;;
73672;SDS011;61972;19.480;-99.240;2023-11-21T10:59:24;15.13;;;10.82;;
73672;SDS011;61972;19.480;-99.240;2023-11-21T11:01:54;16.00;;;11.02;;
73672;SDS011;61972;19.480;-99.240;2023-11-21T11:04:22;16.08;;;10.98;;
73672;SDS011;61972;19.480;-99.240;2023-11-21T11:06:56;15.55;;;10.90;;
73672;SDS011;61972;19.480;-99.240;2023-11-21T11:09:24;15.37;;;10.87;;
73672;SDS011;61972;19.480;-99.240;2023-11-21T11:11:52;17.30;;;11.30;;
73672;SDS011;61972;19.480;-99.240;2023-11-21T11:14:19;16.45;;;11.00;;
73672;SDS011;61972;19.480;-99.240;2023-11-21T11:16:45;16.00;;;11.00;;
73672;SDS011;61972;19.480;-99.240;2023-11-21T11:19:12;14.98;;;10.45;;
73672;SDS011;61972;19.480;-99.240;2023-11-21T11:31:04;15.35;;;10.00;;
73672;SDS011;61972;19.480;-99.240;2023-11-21T11:33:57;15.50;;;9.80;;
73672;SDS011;61972;19.480;-99.240;2023-11-21T11:36:41;13.80;;;10.23;;
73672;SDS011;61972;19.480;-99.240;2023-11-21T11:42:15;14.93;;;10.40;;
73672;SDS011;61972;19.480;-99.240;2023-11-21T11:49:58;12.90;;;9.20;;
73672;SDS011;61972;19.480;-99.240;2023-11-21T11:52:35;12.90;;;9.18;;
73672;SDS011;61972;19.480;-99.240;2023-11-21T11:55:06;13.32;;;9.18;;
73672;SDS011;61972;19.480;-99.240;2023-11-21T11:57:35;12.63;;;8.70;;
73672;SDS011;61972;19.480;-99.240;2023-11-21T12:02:53;13.83;;;8.60;;
73672;SDS011;61972;19.480;-99.240;2023-11-21T12:05:25;12.70;;;9.00;;
73672;SDS011;61972;19.480;-99.240;2023-11-21T12:08:04;12.50;;;8.70;;
73672;SDS011;61972;19.480;-99.240;2023-11-21T12:10:35;12.65;;;8.32;;
73672;SDS011;61972;19.480;-99.240;2023-11-21T12:13:07;13.25;;;8.77;;
73672;SDS011;61972;19.480;-99.240;2023-11-21T12:15:35;11.83;;;8.30;;
73672;SDS011;61972;19.480;-99.240;2023-11-21T12:18:02;12.93;;;8.80;;
73672;SDS011;61972;19.480;-99.240;2023-11-21T12:20:32;13.65;;;8.27;;
73672;SDS011;61972;19.480;-99.240;2023-11-21T12:23:03;15.50;;;8.57;;
73672;SDS011;61972;19.480;-99.240;2023-11-21T12:25:31;13.80;;;8.68;;
73672;SDS011;61972;19.480;-99.240;2023-11-21T12:27:58;11.50;;;7.93;;
73672;SDS011;61972;19.480;-99.240;2023-11-21T12:30:26;12.75;;;8.25;;
73672;SDS011;61972;19.480;-99.240;2023-11-21T12:32:56;11.13;;;7.45;;
73672;SDS011;61972;19.480;-99.240;2023-11-21T12:35:27;10.63;;;7.85;;
73672;SDS011;61972;19.480;-99.240;2023-11-21T12:37:55;12.65;;;8.38;;
73672;SDS011;61972;19.480;-99.240;2023-11-21T12:40:25;12.20;;;8.33;;
73672;SDS011;61972;19.480;-99.240;2023-11-21T12:42:52;12.15;;;8.43;;
73672;SDS011;61972;19.480;-99.240;2023-11-21T12:45:20;11.85;;;8.07;;
73672;SDS011;61972;19.480;-99.240;2023-11-21T12:47:54;11.93;;;7.88;;
73672;SDS011;61972;19.480;-99.240;2023-11-21T12:50:25;12.25;;;7.78;;
73672;SDS011;61972;19.480;-99.240;2023-11-21T12:52:55;10.97;;;7.83;;
73672;SDS011;61972;19.480;-99.240;2023-11-21T12:55:25;15.90;;;7.80;;
73672;SDS011;61972;19.480;-99.240;2023-11-21T12:57:52;11.23;;;7.90;;
73672;SDS011;61972;19.480;-99.240;2023-11-21T13:00:31;11.35;;;7.78;;
73672;SDS011;61972;19.480;-99.240;2023-11-21T13:03:02;11.45;;;7.88;;
73672;SDS011;61972;19.480;-99.240;2023-11-21T13:05:33;10.67;;;7.50;;
73672;SDS011;61972;19.480;-99.240;2023-11-21T13:08:04;11.68;;;7.47;;
73672;SDS011;61972;19.480;-99.240;2023-11-21T13:10:34;10.45;;;7.30;;
73672;SDS011;61972;19.480;-99.240;2023-11-21T13:13:04;10.90;;;7.47;;
73672;SDS011;61972;19.480;-99.240;2023-11-21T13:15:34;10.93;;;7.07;;
73672;SDS011;61972;19.480;-99.240;2023-11-21T13:18:04;11.13;;;7.43;;
73672;SDS011;61972;19.480;-99.240;2023-11-21T13:20:30;10.23;;;7.15;;
73672;SDS011;61972;19.480;-99.240;2023-11-21T13:22:57;9.60;;;6.90;;
73672;SDS011;61972;19.480;-99.240;2023-11-21T13:25:26;10.00;;;7.05;;
73672;SDS011;61972;19.480;-99.240;2023-11-21T13:27:56;10.43;;;7.50;;
73672;SDS011;61972;19.480;-99.240;2023-11-21T13:30:23;10.03;;;7.00;;
73672;SDS011;61972;19.480;-99.240;2023-11-21T13:33:02;11.00;;;7.20;;
73672;SDS011;61972;19.480;-99.240;2023-11-21T13:35:36;11.10;;;6.93;;
73672;SDS011;61972;19.480;-99.240;2023-11-21T13:38:07;9.57;;;6.63;;
73672;SDS011;61972;19.480;-99.240;2023-11-21T13:40:36;10.20;;;7.15;;
73672;SDS011;61972;19.480;-99.240;2023-11-21T13:43:17;10.43;;;6.80;;
73672;SDS011;61972;19.480;-99.240;2023-11-21T13:45:46;9.77;;;6.63;;
73672;SDS011;61972;19.480;-99.240;2023-11-21T13:48:15;9.48;;;6.80;;
73672;SDS011;61972;19.480;-99.240;2023-11-21T13:50:45;9.52;;;6.93;;
73672;SDS011;61972;19.480;-99.240;2023-11-21T13:53:20;10.18;;;7.00;;
73672;SDS011;61972;19.480;-99.240;2023-11-21T13:55:51;9.57;;;6.60;;
73672;SDS011;61972;19.480;-99.240;2023-11-21T13:58:25;9.90;;;6.88;;
73672;SDS011;61972;19.480;-99.240;2023-11-21T14:01:23;9.63;;;6.32;;
73672;SDS011;61972;19.480;-99.240;2023-11-21T14:04:17;9.45;;;6.40;;
73672;SDS011;61972;19.480;-99.240;2023-11-21T14:09:22;9.10;;;6.43;;
73672;SDS011;61972;19.480;-99.240;2023-11-21T14:11:54;10.65;;;6.63;;
73672;SDS011;61972;19.480;-99.240;2023-11-21T14:14:25;9.25;;;6.50;;
73672;SDS011;61972;19.480;-99.240;2023-11-21T14:16:56;8.55;;;6.05;;
73672;SDS011;61972;19.480;-99.240;2023-11-21T14:19:24;8.60;;;6.03;;
73672;SDS011;61972;19.480;-99.240;2023-11-21T14:21:57;8.87;;;6.03;;
73672;SDS011;61972;19.480;-99.240;2023-11-21T14:24:24;9.43;;;6.75;;
73672;SDS011;61972;19.480;-99.240;2023-11-21T14:26:50;9.38;;;6.28;;
73672;SDS011;61972;19.480;-99.240;2023-11-21T14:29:18;9.57;;;6.70;;
73672;SDS011;61972;19.480;-99.240;2023-11-21T14:31:48;9.00;;;6.30;;
73672;SDS011;61972;19.480;-99.240;2023-11-21T14:34:21;8.93;;;6.10;;
73672;SDS011;61972;19.480;-99.240;2023-11-21T14:36:48;9.13;;;6.35;;
73672;SDS011;61972;19.480;-99.240;2023-11-21T14:39:15;8.93;;;6.15;;
73672;SDS011;61972;19.480;-99.240;2023-11-21T14:41:51;9.73;;;6.10;;
73672;SDS011;61972;19.480;-99.240;2023-11-21T14:44:21;8.88;;;6.05;;